createdAt,value
2018-06-15T00:02:21.514Z,9.90
2018-06-15T00:04:49.060Z,9.33
2018-06-15T00:07:16.684Z,10.20
2018-06-15T00:09:44.194Z,9.87
2018-06-15T00:12:11.674Z,9.67
2018-06-15T00:14:39.212Z,9.13
2018-06-15T00:17:06.729Z,9.77
2018-06-15T00:19:34.251Z,8.60
2018-06-15T00:22:01.776Z,10.30
2018-06-15T00:24:29.278Z,11.40
2018-06-15T00:26:56.769Z,10.43
2018-06-15T00:29:24.277Z,11.77
2018-06-15T00:31:51.771Z,8.33
2018-06-15T00:34:19.280Z,8.67
2018-06-15T00:36:46.804Z,9.40
2018-06-15T00:39:14.467Z,9.97
2018-06-15T00:41:43.336Z,8.90
2018-06-15T00:44:10.839Z,8.57
2018-06-15T00:46:38.320Z,10.80
2018-06-15T00:49:06.447Z,11.70
2018-06-15T00:51:34.080Z,10.53
2018-06-15T00:54:01.603Z,9.93
2018-06-15T00:56:29.449Z,9.27
2018-06-15T00:58:56.949Z,9.73
2018-06-15T01:01:24.482Z,9.20
2018-06-15T01:03:52.309Z,10.63
2018-06-15T01:06:19.808Z,10.40
2018-06-15T01:08:47.294Z,9.57
2018-06-15T01:11:14.826Z,10.70
2018-06-15T01:13:42.632Z,9.83
2018-06-15T01:16:10.140Z,9.60
2018-06-15T01:18:37.623Z,9.67
2018-06-15T01:21:05.353Z,9.53
2018-06-15T01:23:32.848Z,8.37
2018-06-15T01:26:00.384Z,10.10
2018-06-15T01:28:27.874Z,8.37
2018-06-15T01:30:55.388Z,8.83
2018-06-15T01:33:22.904Z,12.57
2018-06-15T01:35:50.412Z,11.87
2018-06-15T01:38:17.916Z,10.20
2018-06-15T01:40:45.417Z,9.83
2018-06-15T01:43:12.902Z,10.57
2018-06-15T01:45:40.405Z,9.53
2018-06-15T01:48:07.900Z,9.97
2018-06-15T01:50:35.417Z,10.03
2018-06-15T01:53:02.912Z,9.70
2018-06-15T01:55:30.420Z,9.53
2018-06-15T01:57:57.896Z,10.47
2018-06-15T02:00:25.405Z,11.17
2018-06-15T02:02:52.897Z,11.63
2018-06-15T02:05:20.336Z,10.90
2018-06-15T02:07:47.871Z,9.17
2018-06-15T02:10:15.355Z,11.27
2018-06-15T02:12:42.832Z,10.40
2018-06-15T02:15:10.364Z,10.10
2018-06-15T02:17:37.888Z,9.93
2018-06-15T02:20:05.500Z,10.37
2018-06-15T02:22:33.021Z,9.63
2018-06-15T02:25:00.560Z,10.57
2018-06-15T02:27:28.072Z,9.83
2018-06-15T02:29:55.589Z,10.00
2018-06-15T02:32:23.116Z,8.97
2018-06-15T02:34:50.665Z,8.60
2018-06-15T02:37:18.374Z,9.10
2018-06-15T02:39:45.899Z,9.87
2018-06-15T02:42:13.427Z,11.43
2018-06-15T02:44:40.943Z,10.07
2018-06-15T02:47:08.481Z,9.83
2018-06-15T02:49:35.992Z,10.00
2018-06-15T02:52:03.646Z,10.27
2018-06-15T02:54:31.165Z,12.53
2018-06-15T02:56:58.779Z,9.80
2018-06-15T02:59:26.290Z,10.70
2018-06-15T03:01:53.833Z,10.10
2018-06-15T03:04:21.364Z,9.90
2018-06-15T03:06:48.932Z,10.27
2018-06-15T03:09:16.444Z,9.93
2018-06-15T03:11:43.984Z,10.30
2018-06-15T03:14:11.498Z,9.50
2018-06-15T03:16:39.079Z,10.83
2018-06-15T03:19:06.596Z,11.07
2018-06-15T03:21:34.152Z,12.17
2018-06-15T03:24:01.670Z,9.57
2018-06-15T03:26:29.204Z,13.13
2018-06-15T03:28:56.767Z,9.47
2018-06-15T03:31:24.347Z,10.00
2018-06-15T03:33:51.867Z,10.00
2018-06-15T03:36:19.413Z,10.60
2018-06-15T03:38:46.963Z,9.80
2018-06-15T03:41:14.496Z,10.50
2018-06-15T03:43:41.921Z,10.67
2018-06-15T03:46:09.439Z,10.60
2018-06-15T03:48:36.940Z,9.60
2018-06-15T03:51:04.469Z,9.73
2018-06-15T03:53:31.980Z,10.10
2018-06-15T03:55:59.509Z,9.77
2018-06-15T03:58:27.135Z,8.70
2018-06-15T04:00:54.636Z,10.83
2018-06-15T04:03:22.157Z,10.10
2018-06-15T04:05:49.676Z,9.70
2018-06-15T04:08:17.489Z,10.93
2018-06-15T04:10:45.011Z,10.03
2018-06-15T04:13:12.599Z,10.87
2018-06-15T04:15:40.080Z,9.63
2018-06-15T04:18:08.132Z,10.20
2018-06-15T04:20:37.214Z,9.77
2018-06-15T04:23:04.788Z,11.33
2018-06-15T04:25:32.925Z,9.07
2018-06-15T04:28:00.472Z,12.07
2018-06-15T04:30:27.924Z,10.33
2018-06-15T04:32:56.077Z,8.80
2018-06-15T04:35:23.606Z,9.20
2018-06-15T04:37:51.273Z,10.27
2018-06-15T04:40:18.817Z,9.97
2018-06-15T04:42:46.429Z,10.83
2018-06-15T04:45:14.210Z,10.10
2018-06-15T04:47:41.953Z,9.27
2018-06-15T04:50:09.590Z,11.13
2018-06-15T04:52:37.172Z,9.40
2018-06-15T04:55:05.461Z,9.80
2018-06-15T04:57:33.089Z,9.43
2018-06-15T05:00:00.739Z,8.20
2018-06-15T05:02:29.272Z,9.50
2018-06-15T05:04:56.930Z,7.20
2018-06-15T05:07:25.496Z,7.90
2018-06-15T05:09:53.149Z,9.03
2018-06-15T05:12:20.891Z,7.80
2018-06-15T05:14:48.597Z,7.57
2018-06-15T05:17:16.346Z,8.63
2018-06-15T05:19:44.062Z,8.27
2018-06-15T05:22:11.709Z,9.27
2018-06-15T05:24:39.440Z,8.83
2018-06-15T05:27:07.298Z,8.90
2018-06-15T05:29:35.157Z,7.50
2018-06-15T05:32:02.808Z,7.70
2018-06-15T05:34:30.327Z,8.33
2018-06-15T05:36:57.897Z,8.30
2018-06-15T05:39:25.415Z,7.50
2018-06-15T05:41:53.239Z,6.93
2018-06-15T05:44:20.762Z,7.40
2018-06-15T05:46:48.272Z,6.80
2018-06-15T05:49:15.878Z,6.70
2018-06-15T05:51:43.406Z,7.00
2018-06-15T05:54:10.942Z,5.67
2018-06-15T05:56:38.504Z,7.20
2018-06-15T05:59:06.190Z,6.97
2018-06-15T06:01:33.834Z,6.83
2018-06-15T06:04:01.463Z,7.00
2018-06-15T06:06:28.928Z,6.93
2018-06-15T06:08:56.475Z,7.10
2018-06-15T06:11:24.097Z,6.13
2018-06-15T06:13:51.624Z,6.03
2018-06-15T06:16:19.144Z,6.50
2018-06-15T06:18:46.692Z,5.40
2018-06-15T06:21:14.219Z,6.17
2018-06-15T06:23:41.883Z,6.00
2018-06-15T06:26:10.179Z,6.93
2018-06-15T06:28:37.749Z,6.17
2018-06-15T06:31:05.828Z,6.23
2018-06-15T06:33:33.580Z,6.20
2018-06-15T06:36:01.219Z,5.40
2018-06-15T06:38:29.220Z,5.43
2018-06-15T06:40:56.783Z,5.30
2018-06-15T06:43:24.316Z,5.43
2018-06-15T06:45:51.832Z,5.30
2018-06-15T06:48:19.380Z,5.43
2018-06-15T06:50:46.905Z,4.73
2018-06-15T06:53:14.443Z,5.07
2018-06-15T06:55:41.961Z,5.30
2018-06-15T06:58:09.520Z,5.13
2018-06-15T07:00:37.028Z,4.70
2018-06-15T07:03:04.555Z,5.43
2018-06-15T07:05:32.104Z,4.03
2018-06-15T07:07:59.701Z,4.53
2018-06-15T07:10:27.212Z,3.83
2018-06-15T07:12:54.729Z,3.87
2018-06-15T07:15:22.311Z,3.50
2018-06-15T07:17:49.807Z,4.17
2018-06-15T07:20:17.328Z,4.00
2018-06-15T07:22:45.012Z,3.67
2018-06-15T07:25:12.563Z,3.80
2018-06-15T07:27:40.070Z,3.97
2018-06-15T07:30:08.090Z,4.00
2018-06-15T07:32:35.605Z,3.43
2018-06-15T07:35:03.188Z,3.47
2018-06-15T07:37:30.923Z,3.40
2018-06-15T07:39:58.464Z,3.47
2018-06-15T07:42:26.025Z,4.17
2018-06-15T07:44:53.572Z,3.00
2018-06-15T07:47:21.051Z,4.37
2018-06-15T07:49:49.020Z,3.30
2018-06-15T07:52:16.538Z,3.30
2018-06-15T07:54:44.076Z,3.67
2018-06-15T07:57:11.592Z,4.13
2018-06-15T07:59:39.172Z,3.90
2018-06-15T08:02:06.781Z,3.87
2018-06-15T08:04:34.324Z,4.00
2018-06-15T08:07:01.829Z,4.40
2018-06-15T08:09:29.406Z,4.30
2018-06-15T08:11:56.921Z,4.30
2018-06-15T08:14:24.387Z,3.57
2018-06-15T08:16:52.088Z,3.80
2018-06-15T08:19:19.630Z,4.10
2018-06-15T08:21:47.144Z,4.17
2018-06-15T08:24:14.680Z,4.20
2018-06-15T08:26:42.196Z,3.90
2018-06-15T08:29:09.735Z,3.60
2018-06-15T08:31:37.244Z,3.37
2018-06-15T08:34:04.789Z,3.60
2018-06-15T08:36:32.308Z,3.83
2018-06-15T08:39:00.662Z,4.17
2018-06-15T08:41:28.184Z,3.90
2018-06-15T08:43:55.722Z,4.20
2018-06-15T08:46:23.439Z,3.70
2018-06-15T08:48:51.226Z,3.50
2018-06-15T08:51:18.771Z,4.10
2018-06-15T08:53:46.276Z,4.03
2018-06-15T08:56:13.834Z,4.07
2018-06-15T08:58:41.348Z,4.13
2018-06-15T09:01:08.897Z,3.87
2018-06-15T09:03:36.425Z,3.90
2018-06-15T09:06:03.959Z,3.80
2018-06-15T09:08:31.510Z,4.30
2018-06-15T09:10:59.064Z,4.63
2018-06-15T09:13:26.628Z,4.53
2018-06-15T09:15:54.165Z,4.27
2018-06-15T09:18:21.684Z,4.43
2018-06-15T09:20:49.221Z,4.37
2018-06-15T09:23:16.733Z,3.83
2018-06-15T09:25:44.279Z,3.97
2018-06-15T09:28:11.795Z,4.40
2018-06-15T09:30:39.362Z,4.27
2018-06-15T09:33:06.869Z,3.70
2018-06-15T09:35:34.417Z,3.70
2018-06-15T09:38:02.037Z,4.10
2018-06-15T09:40:29.672Z,4.30
2018-06-15T09:42:57.172Z,3.67
2018-06-15T09:45:24.705Z,3.70
2018-06-15T09:47:52.280Z,3.60
2018-06-15T09:50:19.756Z,3.97
2018-06-15T09:52:47.286Z,3.93
2018-06-15T09:55:14.837Z,3.57
2018-06-15T09:57:42.389Z,3.83
2018-06-15T10:00:09.994Z,3.73
2018-06-15T10:02:37.504Z,3.63
2018-06-15T10:05:05.045Z,3.47
2018-06-15T10:07:32.925Z,3.53
2018-06-15T10:10:00.432Z,3.47
2018-06-15T10:12:27.972Z,3.93
2018-06-15T10:14:55.482Z,3.77
2018-06-15T10:17:23.844Z,3.37
2018-06-15T10:19:51.364Z,3.77
2018-06-15T10:22:18.902Z,3.57
2018-06-15T10:24:46.411Z,3.90
2018-06-15T10:27:13.961Z,3.67
2018-06-15T10:29:41.465Z,4.07
2018-06-15T10:32:09.025Z,4.17
2018-06-15T10:34:36.532Z,3.67
2018-06-15T10:37:04.098Z,3.80
2018-06-15T10:39:31.626Z,4.07
2018-06-15T10:41:59.178Z,3.90
2018-06-15T10:44:26.719Z,3.90
2018-06-15T10:46:54.265Z,3.77
2018-06-15T10:49:21.776Z,3.20
2018-06-15T10:51:49.352Z,3.80
2018-06-15T10:54:17.224Z,3.50
2018-06-15T10:56:44.759Z,4.07
2018-06-15T10:59:12.271Z,3.80
2018-06-15T11:01:39.802Z,3.93
2018-06-15T11:04:07.313Z,3.90
2018-06-15T11:06:34.828Z,3.70
2018-06-15T11:09:02.578Z,3.80
2018-06-15T11:11:30.105Z,3.40
2018-06-15T11:13:57.629Z,3.77
2018-06-15T11:16:25.128Z,3.80
2018-06-15T11:18:52.657Z,3.77
2018-06-15T11:21:20.165Z,4.00
2018-06-15T11:23:47.724Z,3.80
2018-06-15T11:26:15.224Z,4.20
2018-06-15T11:28:42.756Z,4.47
2018-06-15T11:31:10.322Z,3.83
2018-06-15T11:33:37.807Z,3.20
2018-06-15T11:36:05.324Z,3.70
2018-06-15T11:38:32.919Z,3.90
2018-06-15T11:41:00.464Z,3.63
2018-06-15T11:43:27.960Z,4.10
2018-06-15T11:45:55.480Z,3.90
2018-06-15T11:48:22.924Z,3.83
2018-06-15T11:50:50.432Z,3.93
2018-06-15T11:53:17.964Z,3.57
2018-06-15T11:55:45.500Z,4.20
2018-06-15T11:58:13.029Z,3.77
2018-06-15T12:00:40.572Z,3.83
2018-06-15T12:03:08.145Z,4.13
2018-06-15T12:05:35.649Z,3.90
2018-06-15T12:08:03.176Z,3.70
2018-06-15T12:10:30.680Z,4.30
2018-06-15T12:12:58.221Z,4.10
2018-06-15T12:15:25.732Z,4.30
2018-06-15T12:17:53.257Z,4.13
2018-06-15T12:20:20.765Z,3.90
2018-06-15T12:22:48.288Z,3.70
2018-06-15T12:25:15.900Z,3.80
2018-06-15T12:27:43.400Z,4.33
2018-06-15T12:30:10.928Z,4.00
2018-06-15T12:32:38.471Z,4.00
2018-06-15T12:35:05.999Z,3.57
2018-06-15T12:37:33.544Z,3.33
2018-06-15T12:40:01.072Z,3.43
2018-06-15T12:42:28.568Z,4.17
2018-06-15T12:44:56.109Z,3.40
2018-06-15T12:47:23.796Z,3.13
2018-06-15T12:49:51.316Z,3.40
2018-06-15T12:52:18.833Z,3.70
2018-06-15T12:54:46.361Z,3.93
2018-06-15T12:57:13.869Z,3.30
2018-06-15T12:59:41.400Z,4.03
2018-06-15T13:02:08.927Z,3.70
2018-06-15T13:04:36.452Z,3.67
2018-06-15T13:07:04.796Z,3.57
2018-06-15T13:09:32.316Z,4.00
2018-06-15T13:11:59.812Z,4.43
2018-06-15T13:14:27.352Z,4.07
2018-06-15T13:16:54.960Z,4.03
2018-06-15T13:19:22.508Z,3.80
2018-06-15T13:21:50.008Z,3.60
2018-06-15T13:24:17.536Z,3.50
2018-06-15T13:26:45.041Z,4.10
2018-06-15T13:29:12.559Z,3.57
2018-06-15T13:31:40.078Z,4.00
2018-06-15T13:34:07.612Z,3.40
2018-06-15T13:36:35.136Z,3.37
2018-06-15T13:39:03.423Z,3.67
2018-06-15T13:41:30.948Z,3.40
2018-06-15T13:43:58.460Z,3.47
2018-06-15T13:46:26.000Z,3.60
2018-06-15T13:48:53.532Z,3.70
2018-06-15T13:51:21.076Z,3.83
2018-06-15T13:53:48.610Z,3.20
2018-06-15T13:56:16.142Z,3.67
2018-06-15T13:58:43.681Z,3.50
2018-06-15T14:01:11.236Z,3.50
2018-06-15T14:03:38.744Z,3.20
2018-06-15T14:06:06.302Z,3.40
2018-06-15T14:08:33.821Z,3.53
2018-06-15T14:11:01.344Z,3.63
2018-06-15T14:13:28.853Z,3.37
2018-06-15T14:15:56.396Z,3.07
2018-06-15T14:18:23.899Z,3.70
2018-06-15T14:20:51.463Z,3.50
2018-06-15T14:23:19.021Z,3.17
2018-06-15T14:25:46.540Z,3.70
2018-06-15T14:28:14.064Z,3.40
2018-06-15T14:30:41.613Z,3.33
2018-06-15T14:33:09.173Z,3.30
2018-06-15T14:35:36.733Z,3.37
2018-06-15T14:38:04.255Z,3.70
2018-06-15T14:40:31.832Z,3.50
2018-06-15T14:42:59.317Z,3.87
2018-06-15T14:45:26.857Z,4.10
2018-06-15T14:47:54.481Z,3.50
2018-06-15T14:50:23.116Z,3.40
2018-06-15T14:52:50.845Z,4.00
2018-06-15T14:55:18.404Z,3.53
2018-06-15T14:57:45.991Z,3.00
2018-06-15T15:00:13.542Z,3.43
2018-06-15T15:02:41.209Z,3.40
2018-06-15T15:05:09.009Z,3.43
2018-06-15T15:07:36.604Z,3.37
2018-06-15T15:10:04.995Z,3.50
2018-06-15T15:12:32.600Z,3.57
2018-06-15T15:15:00.213Z,3.47
2018-06-15T15:17:27.909Z,3.43
2018-06-15T15:19:55.466Z,3.33
2018-06-15T15:22:23.116Z,3.10
2018-06-15T15:24:50.656Z,2.83
2018-06-15T15:27:18.223Z,3.57
2018-06-15T15:29:45.806Z,3.10
2018-06-15T15:32:13.960Z,3.50
2018-06-15T15:34:41.473Z,3.57
2018-06-15T15:37:09.069Z,3.27
2018-06-15T15:39:36.676Z,3.00
2018-06-15T15:42:04.229Z,3.23
2018-06-15T15:44:31.818Z,2.80
2018-06-15T15:46:59.348Z,3.43
2018-06-15T15:49:26.848Z,3.57
2018-06-15T15:51:54.358Z,3.90
2018-06-15T15:54:21.880Z,3.00
2018-06-15T15:56:49.441Z,3.20
2018-06-15T15:59:16.976Z,3.37
2018-06-15T16:01:44.484Z,3.00
2018-06-15T16:04:12.007Z,3.73
2018-06-15T16:06:39.513Z,3.47
2018-06-15T16:09:07.690Z,3.53
2018-06-15T16:11:35.326Z,3.20
2018-06-15T16:14:02.859Z,3.10
2018-06-15T16:16:30.381Z,3.40
2018-06-15T16:18:57.907Z,2.60
2018-06-15T16:21:25.413Z,2.83
2018-06-15T16:23:52.956Z,3.00
2018-06-15T16:26:20.484Z,3.30
2018-06-15T16:28:48.024Z,3.03
2018-06-15T16:31:15.524Z,3.00
2018-06-15T16:33:43.049Z,3.10
2018-06-15T16:36:10.572Z,3.53
2018-06-15T16:38:38.108Z,3.33
2018-06-15T16:41:05.652Z,2.93
2018-06-15T16:43:33.148Z,3.27
2018-06-15T16:46:00.672Z,3.10
2018-06-15T16:48:28.200Z,3.27
2018-06-15T16:50:55.745Z,3.03
2018-06-15T16:53:23.254Z,3.10
2018-06-15T16:55:50.797Z,3.40
2018-06-15T16:58:18.310Z,3.30
2018-06-15T17:00:45.956Z,3.40
2018-06-15T17:03:13.471Z,3.57
2018-06-15T17:05:40.992Z,3.40
2018-06-15T17:08:08.510Z,3.43
2018-06-15T17:10:36.044Z,3.37
2018-06-15T17:13:03.564Z,3.27
2018-06-15T17:15:31.334Z,3.20
2018-06-15T17:17:58.840Z,2.90
2018-06-15T17:20:26.365Z,3.40
2018-06-15T17:22:53.874Z,3.27
2018-06-15T17:25:21.416Z,3.33
2018-06-15T17:27:48.924Z,3.27
2018-06-15T17:30:16.465Z,3.50
2018-06-15T17:32:43.997Z,3.10
2018-06-15T17:35:11.523Z,3.07
2018-06-15T17:37:39.092Z,3.90
2018-06-15T17:40:06.643Z,3.57
2018-06-15T17:42:34.096Z,3.40
2018-06-15T17:45:01.610Z,3.70
2018-06-15T17:47:29.265Z,3.47
2018-06-15T17:49:56.784Z,3.50
2018-06-15T17:52:24.309Z,3.40
2018-06-15T17:54:51.944Z,3.53
2018-06-15T17:57:19.487Z,3.50
2018-06-15T17:59:47.026Z,3.90
2018-06-15T18:02:14.545Z,3.40
2018-06-15T18:04:42.062Z,3.93
2018-06-15T18:07:09.616Z,4.03
2018-06-15T18:09:37.120Z,4.10
2018-06-15T18:12:04.656Z,3.70
2018-06-15T18:14:32.168Z,3.87
2018-06-15T18:16:59.801Z,4.10
2018-06-15T18:19:27.304Z,4.00
2018-06-15T18:21:54.768Z,4.80
2018-06-15T18:24:22.444Z,3.67
2018-06-15T18:26:49.944Z,3.77
2018-06-15T18:29:18.288Z,4.30
2018-06-15T18:31:45.820Z,3.93
2018-06-15T18:34:13.344Z,4.37
2018-06-15T18:36:40.863Z,4.17
2018-06-15T18:39:10.708Z,3.93
2018-06-15T18:41:38.241Z,4.00
2018-06-15T18:44:06.080Z,4.53
2018-06-15T18:46:33.771Z,4.20
2018-06-15T18:49:01.320Z,3.63
2018-06-15T18:51:28.964Z,4.10
2018-06-15T18:53:56.719Z,4.40
2018-06-15T18:56:24.324Z,4.50
2018-06-15T18:58:51.900Z,4.07
2018-06-15T19:01:19.500Z,4.60
2018-06-15T19:03:47.300Z,4.10
2018-06-15T19:06:14.805Z,4.30
2018-06-15T19:08:43.232Z,4.40
2018-06-15T19:11:10.756Z,4.43
2018-06-15T19:13:38.472Z,4.70
2018-06-15T19:16:06.005Z,4.77
2018-06-15T19:18:33.556Z,4.90
2018-06-15T19:21:01.084Z,4.83
2018-06-15T19:23:28.617Z,5.27
2018-06-15T19:25:56.114Z,5.03
2018-06-15T19:28:23.637Z,5.40
2018-06-15T19:30:51.173Z,4.90
2018-06-15T19:33:18.709Z,5.20
2018-06-15T19:35:46.205Z,5.67
2018-06-15T19:38:13.723Z,6.13
2018-06-15T19:40:41.444Z,5.60
2018-06-15T19:43:08.964Z,5.80
2018-06-15T19:45:36.519Z,5.80
2018-06-15T19:48:04.349Z,5.13
2018-06-15T19:50:31.877Z,5.60
2018-06-15T19:52:59.403Z,5.50
2018-06-15T19:55:26.933Z,5.40
2018-06-15T19:57:54.439Z,5.33
2018-06-15T20:00:22.080Z,8.73
2018-06-15T20:02:49.622Z,12.27
2018-06-15T20:05:17.192Z,6.67
2018-06-15T20:07:44.708Z,5.77
2018-06-15T20:10:12.236Z,6.30
2018-06-15T20:12:39.740Z,6.43
2018-06-15T20:15:07.288Z,6.43
2018-06-15T20:17:34.802Z,6.27
2018-06-15T20:20:02.353Z,6.67
2018-06-15T20:22:29.869Z,6.40
2018-06-15T20:24:58.624Z,6.30
2018-06-15T20:27:26.132Z,6.37
2018-06-15T20:29:53.696Z,5.90
2018-06-15T20:32:21.206Z,6.43
2018-06-15T20:34:48.735Z,6.03
2018-06-15T20:37:16.300Z,5.87
2018-06-15T20:39:43.881Z,6.77
2018-06-15T20:42:11.396Z,6.17
2018-06-15T20:44:38.944Z,7.07
2018-06-15T20:47:06.468Z,7.47
2018-06-15T20:49:33.992Z,6.47
2018-06-15T20:52:01.532Z,6.20
2018-06-15T20:54:29.042Z,6.33
2018-06-15T20:56:56.580Z,7.13
2018-06-15T20:59:24.117Z,7.57
2018-06-15T21:01:51.652Z,7.57
2018-06-15T21:04:19.206Z,6.70
2018-06-15T21:06:46.746Z,7.00
2018-06-15T21:09:14.248Z,7.40
2018-06-15T21:11:41.791Z,7.30
2018-06-15T21:14:09.343Z,7.00
2018-06-15T21:16:36.872Z,6.90
2018-06-15T21:19:04.538Z,7.37
2018-06-15T21:21:32.056Z,7.77
2018-06-15T21:23:59.660Z,7.77
2018-06-15T21:26:27.201Z,7.53
2018-06-15T21:28:54.708Z,7.67
2018-06-15T21:31:22.260Z,8.20
2018-06-15T21:33:49.778Z,8.13
2018-06-15T21:36:17.368Z,8.60
2018-06-15T21:38:44.906Z,7.93
2018-06-15T21:41:12.434Z,7.07
2018-06-15T21:43:39.966Z,8.50
2018-06-15T21:46:07.485Z,8.23
2018-06-15T21:48:35.047Z,9.83
2018-06-15T21:51:02.588Z,8.27
2018-06-15T21:53:30.117Z,8.97
2018-06-15T21:55:57.648Z,8.67
2018-06-15T21:58:25.189Z,9.03
2018-06-15T22:01:13.295Z,8.30
2018-06-15T22:03:41.001Z,8.93
2018-06-15T22:06:08.519Z,8.43
2018-06-15T22:08:35.990Z,8.00
2018-06-15T22:11:03.423Z,10.00
2018-06-15T22:13:30.968Z,9.60
2018-06-15T22:15:58.517Z,9.93
2018-06-15T22:18:26.241Z,8.50
2018-06-15T22:20:53.786Z,9.40
2018-06-15T22:23:21.310Z,10.07
2018-06-15T22:25:48.862Z,10.33
2018-06-15T22:28:16.618Z,7.63
2018-06-15T22:30:44.273Z,9.10
2018-06-15T22:33:12.156Z,11.13
2018-06-15T22:35:40.296Z,9.87
2018-06-15T22:38:07.920Z,8.67
2018-06-15T22:40:35.644Z,9.07
2018-06-15T22:43:03.325Z,8.37
2018-06-15T22:45:30.872Z,8.47
2018-06-15T22:47:58.474Z,8.13
2018-06-15T22:50:26.093Z,8.80
2018-06-15T22:52:53.759Z,10.60
2018-06-15T22:55:21.259Z,9.07
2018-06-15T22:57:48.788Z,10.27
2018-06-15T23:00:17.204Z,10.33
2018-06-15T23:02:45.205Z,9.57
2018-06-15T23:05:12.737Z,9.57
2018-06-15T23:07:40.308Z,9.83
2018-06-15T23:10:09.189Z,8.80
2018-06-15T23:12:37.457Z,7.83
2018-06-15T23:15:05.605Z,9.37
2018-06-15T23:17:33.372Z,9.60
2018-06-15T23:20:01.191Z,10.10
2018-06-15T23:22:28.741Z,10.37
2018-06-15T23:24:57.225Z,10.13
2018-06-15T23:27:25.078Z,10.93
2018-06-15T23:29:53.167Z,13.10
2018-06-15T23:32:20.688Z,9.57
2018-06-15T23:34:48.345Z,11.20
2018-06-15T23:37:15.912Z,12.10
2018-06-15T23:39:43.805Z,10.33
2018-06-15T23:42:11.405Z,9.77
2018-06-15T23:44:39.252Z,9.40
2018-06-15T23:47:06.788Z,12.47
2018-06-15T23:49:34.357Z,10.33
2018-06-15T23:52:02.144Z,12.03
2018-06-15T23:54:29.706Z,9.97
2018-06-15T23:56:57.225Z,10.93
2018-06-15T23:59:24.754Z,13.00
